sensor_id;sensor_type;location;lat;lon;timestamp;P1;durP1;ratioP1;P2;durP2;ratioP2
4547;SDS011;2286;51.570;7.090;2023-11-21T00:01:20;21.33;;;13.20;;
4547;SDS011;2286;51.570;7.090;2023-11-21T00:03:47;19.53;;;11.90;;
4547;SDS011;2286;51.570;7.090;2023-11-21T00:06:14;16.33;;;11.47;;
4547;SDS011;2286;51.570;7.090;2023-11-21T00:08:42;18.13;;;11.70;;
4547;SDS011;2286;51.570;7.090;2023-11-21T00:11:09;19.40;;;11.80;;
4547;SDS011;2286;51.570;7.090;2023-11-21T00:13:36;15.60;;;10.33;;
4547;SDS011;2286;51.570;7.090;2023-11-21T00:16:03;13.93;;;10.50;;
4547;SDS011;2286;51.570;7.090;2023-11-21T00:18:30;19.77;;;11.07;;
4547;SDS011;2286;51.570;7.090;2023-11-21T00:20:57;19.23;;;10.63;;
4547;SDS011;2286;51.570;7.090;2023-11-21T00:23:24;15.50;;;9.97;;
4547;SDS011;2286;51.570;7.090;2023-11-21T00:25:53;13.90;;;9.40;;
4547;SDS011;2286;51.570;7.090;2023-11-21T00:28:19;13.40;;;9.37;;
4547;SDS011;2286;51.570;7.090;2023-11-21T00:30:47;13.53;;;9.73;;
4547;SDS011;2286;51.570;7.090;2023-11-21T00:33:14;15.97;;;9.40;;
4547;SDS011;2286;51.570;7.090;2023-11-21T00:35:41;15.03;;;10.13;;
4547;SDS011;2286;51.570;7.090;2023-11-21T00:38:08;18.43;;;11.23;;
4547;SDS011;2286;51.570;7.090;2023-11-21T00:40:34;13.83;;;9.90;;
4547;SDS011;2286;51.570;7.090;2023-11-21T00:43:02;16.40;;;10.67;;
4547;SDS011;2286;51.570;7.090;2023-11-21T00:45:30;17.53;;;11.10;;
4547;SDS011;2286;51.570;7.090;2023-11-21T00:47:57;20.13;;;12.57;;
4547;SDS011;2286;51.570;7.090;2023-11-21T00:50:24;15.77;;;11.80;;
4547;SDS011;2286;51.570;7.090;2023-11-21T00:52:51;17.37;;;11.30;;
4547;SDS011;2286;51.570;7.090;2023-11-21T00:55:18;21.50;;;13.20;;
4547;SDS011;2286;51.570;7.090;2023-11-21T00:57:47;21.27;;;12.10;;
4547;SDS011;2286;51.570;7.090;2023-11-21T01:00:16;15.80;;;12.37;;
4547;SDS011;2286;51.570;7.090;2023-11-21T01:02:43;20.20;;;11.60;;
4547;SDS011;2286;51.570;7.090;2023-11-21T01:05:10;16.60;;;11.60;;
4547;SDS011;2286;51.570;7.090;2023-11-21T01:07:37;20.03;;;12.27;;
4547;SDS011;2286;51.570;7.090;2023-11-21T01:10:04;17.73;;;13.40;;
4547;SDS011;2286;51.570;7.090;2023-11-21T01:12:32;21.53;;;12.70;;
4547;SDS011;2286;51.570;7.090;2023-11-21T01:15:00;19.97;;;13.60;;
4547;SDS011;2286;51.570;7.090;2023-11-21T01:17:28;19.50;;;12.40;;
4547;SDS011;2286;51.570;7.090;2023-11-21T01:19:55;24.20;;;14.50;;
4547;SDS011;2286;51.570;7.090;2023-11-21T01:22:22;20.50;;;14.80;;
4547;SDS011;2286;51.570;7.090;2023-11-21T01:24:51;18.67;;;13.97;;
4547;SDS011;2286;51.570;7.090;2023-11-21T01:27:18;22.03;;;15.40;;
4547;SDS011;2286;51.570;7.090;2023-11-21T01:29:45;24.90;;;14.77;;
4547;SDS011;2286;51.570;7.090;2023-11-21T01:32:12;20.37;;;15.00;;
4547;SDS011;2286;51.570;7.090;2023-11-21T01:34:41;20.03;;;15.33;;
4547;SDS011;2286;51.570;7.090;2023-11-21T01:37:08;19.13;;;14.80;;
4547;SDS011;2286;51.570;7.090;2023-11-21T01:39:37;22.80;;;15.33;;
4547;SDS011;2286;51.570;7.090;2023-11-21T01:42:04;20.90;;;16.07;;
4547;SDS011;2286;51.570;7.090;2023-11-21T01:44:33;21.83;;;15.73;;
4547;SDS011;2286;51.570;7.090;2023-11-21T01:47:00;23.30;;;15.00;;
4547;SDS011;2286;51.570;7.090;2023-11-21T01:49:30;22.57;;;17.07;;
4547;SDS011;2286;51.570;7.090;2023-11-21T01:51:59;20.40;;;15.93;;
4547;SDS011;2286;51.570;7.090;2023-11-21T01:54:27;21.17;;;15.93;;
4547;SDS011;2286;51.570;7.090;2023-11-21T01:56:56;23.17;;;16.50;;
4547;SDS011;2286;51.570;7.090;2023-11-21T01:59:28;22.97;;;15.30;;
4547;SDS011;2286;51.570;7.090;2023-11-21T02:02:00;19.33;;;15.70;;
4547;SDS011;2286;51.570;7.090;2023-11-21T02:04:27;22.70;;;15.40;;
4547;SDS011;2286;51.570;7.090;2023-11-21T02:06:54;20.60;;;15.87;;
4547;SDS011;2286;51.570;7.090;2023-11-21T02:09:25;25.03;;;15.70;;
4547;SDS011;2286;51.570;7.090;2023-11-21T02:11:52;23.43;;;16.93;;
4547;SDS011;2286;51.570;7.090;2023-11-21T02:14:20;22.50;;;17.50;;
4547;SDS011;2286;51.570;7.090;2023-11-21T02:16:47;24.53;;;17.30;;
4547;SDS011;2286;51.570;7.090;2023-11-21T02:19:17;22.33;;;17.03;;
4547;SDS011;2286;51.570;7.090;2023-11-21T02:21:47;29.33;;;19.50;;
4547;SDS011;2286;51.570;7.090;2023-11-21T02:24:18;22.57;;;17.23;;
4547;SDS011;2286;51.570;7.090;2023-11-21T02:26:46;26.50;;;18.17;;
4547;SDS011;2286;51.570;7.090;2023-11-21T02:29:13;27.60;;;18.20;;
4547;SDS011;2286;51.570;7.090;2023-11-21T02:31:43;27.63;;;18.77;;
4547;SDS011;2286;51.570;7.090;2023-11-21T02:34:14;20.87;;;18.47;;
4547;SDS011;2286;51.570;7.090;2023-11-21T02:36:41;26.33;;;18.70;;
4547;SDS011;2286;51.570;7.090;2023-11-21T02:39:08;22.10;;;18.10;;
4547;SDS011;2286;51.570;7.090;2023-11-21T02:41:37;26.57;;;20.03;;
4547;SDS011;2286;51.570;7.090;2023-11-21T02:44:05;25.87;;;19.73;;
4547;SDS011;2286;51.570;7.090;2023-11-21T02:46:32;24.80;;;19.50;;
4547;SDS011;2286;51.570;7.090;2023-11-21T02:49:00;23.67;;;17.60;;
4547;SDS011;2286;51.570;7.090;2023-11-21T02:51:27;23.77;;;18.93;;
4547;SDS011;2286;51.570;7.090;2023-11-21T02:53:54;33.13;;;20.77;;
4547;SDS011;2286;51.570;7.090;2023-11-21T02:56:24;24.50;;;19.53;;
4547;SDS011;2286;51.570;7.090;2023-11-21T02:58:54;34.70;;;21.20;;
4547;SDS011;2286;51.570;7.090;2023-11-21T03:01:22;23.77;;;18.43;;
4547;SDS011;2286;51.570;7.090;2023-11-21T03:03:50;26.53;;;19.20;;
4547;SDS011;2286;51.570;7.090;2023-11-21T03:06:17;22.63;;;19.10;;
4547;SDS011;2286;51.570;7.090;2023-11-21T03:08:44;24.30;;;18.90;;
4547;SDS011;2286;51.570;7.090;2023-11-21T03:11:11;30.03;;;20.30;;
4547;SDS011;2286;51.570;7.090;2023-11-21T03:13:39;26.17;;;19.13;;
4547;SDS011;2286;51.570;7.090;2023-11-21T03:16:09;26.17;;;20.27;;
4547;SDS011;2286;51.570;7.090;2023-11-21T03:18:36;23.60;;;20.07;;
4547;SDS011;2286;51.570;7.090;2023-11-21T03:21:03;30.70;;;20.80;;
4547;SDS011;2286;51.570;7.090;2023-11-21T03:23:31;28.43;;;19.87;;
4547;SDS011;2286;51.570;7.090;2023-11-21T03:25:58;31.07;;;20.17;;
4547;SDS011;2286;51.570;7.090;2023-11-21T03:28:25;26.23;;;21.07;;
4547;SDS011;2286;51.570;7.090;2023-11-21T03:30:53;25.30;;;19.53;;
4547;SDS011;2286;51.570;7.090;2023-11-21T03:33:22;27.70;;;20.60;;
4547;SDS011;2286;51.570;7.090;2023-11-21T03:35:49;24.83;;;20.00;;
4547;SDS011;2286;51.570;7.090;2023-11-21T03:38:18;30.50;;;19.83;;
4547;SDS011;2286;51.570;7.090;2023-11-21T03:40:45;24.40;;;20.80;;
4547;SDS011;2286;51.570;7.090;2023-11-21T03:43:13;26.47;;;20.80;;
4547;SDS011;2286;51.570;7.090;2023-11-21T03:45:40;23.80;;;20.97;;
4547;SDS011;2286;51.570;7.090;2023-11-21T03:48:07;30.03;;;20.57;;
4547;SDS011;2286;51.570;7.090;2023-11-21T03:50:35;27.30;;;20.60;;
4547;SDS011;2286;51.570;7.090;2023-11-21T03:53:02;27.37;;;20.27;;
4547;SDS011;2286;51.570;7.090;2023-11-21T03:55:29;26.93;;;19.00;;
4547;SDS011;2286;51.570;7.090;2023-11-21T03:57:57;29.37;;;20.17;;
4547;SDS011;2286;51.570;7.090;2023-11-21T04:00:24;27.33;;;21.50;;
4547;SDS011;2286;51.570;7.090;2023-11-21T04:02:52;29.50;;;19.63;;
4547;SDS011;2286;51.570;7.090;2023-11-21T04:05:19;30.13;;;21.90;;
4547;SDS011;2286;51.570;7.090;2023-11-21T04:07:49;30.90;;;19.33;;
4547;SDS011;2286;51.570;7.090;2023-11-21T04:10:17;27.40;;;19.67;;
4547;SDS011;2286;51.570;7.090;2023-11-21T04:12:44;27.80;;;21.47;;
4547;SDS011;2286;51.570;7.090;2023-11-21T04:15:11;30.50;;;21.70;;
4547;SDS011;2286;51.570;7.090;2023-11-21T04:17:39;31.20;;;21.13;;
4547;SDS011;2286;51.570;7.090;2023-11-21T04:20:07;29.73;;;21.90;;
4547;SDS011;2286;51.570;7.090;2023-11-21T04:22:36;31.40;;;23.37;;
4547;SDS011;2286;51.570;7.090;2023-11-21T04:25:07;37.30;;;22.90;;
4547;SDS011;2286;51.570;7.090;2023-11-21T04:27:35;32.00;;;22.20;;
4547;SDS011;2286;51.570;7.090;2023-11-21T04:30:02;33.60;;;22.10;;
4547;SDS011;2286;51.570;7.090;2023-11-21T04:32:30;35.20;;;23.83;;
4547;SDS011;2286;51.570;7.090;2023-11-21T04:34:57;35.03;;;23.50;;
4547;SDS011;2286;51.570;7.090;2023-11-21T04:37:24;32.53;;;24.07;;
4547;SDS011;2286;51.570;7.090;2023-11-21T04:39:51;34.00;;;24.33;;
4547;SDS011;2286;51.570;7.090;2023-11-21T04:42:19;34.93;;;24.27;;
4547;SDS011;2286;51.570;7.090;2023-11-21T04:44:46;31.97;;;24.50;;
4547;SDS011;2286;51.570;7.090;2023-11-21T04:47:14;37.43;;;25.10;;
4547;SDS011;2286;51.570;7.090;2023-11-21T04:49:45;34.50;;;25.03;;
4547;SDS011;2286;51.570;7.090;2023-11-21T04:52:13;28.60;;;22.87;;
4547;SDS011;2286;51.570;7.090;2023-11-21T04:54:40;33.10;;;25.40;;
4547;SDS011;2286;51.570;7.090;2023-11-21T04:57:08;34.33;;;25.80;;
4547;SDS011;2286;51.570;7.090;2023-11-21T04:59:36;34.07;;;26.57;;
4547;SDS011;2286;51.570;7.090;2023-11-21T05:02:03;30.33;;;26.23;;
4547;SDS011;2286;51.570;7.090;2023-11-21T05:04:31;41.93;;;25.10;;
4547;SDS011;2286;51.570;7.090;2023-11-21T05:06:58;34.33;;;24.43;;
4547;SDS011;2286;51.570;7.090;2023-11-21T05:09:25;37.33;;;26.40;;
4547;SDS011;2286;51.570;7.090;2023-11-21T05:11:53;34.60;;;28.00;;
4547;SDS011;2286;51.570;7.090;2023-11-21T05:14:20;32.57;;;25.67;;
4547;SDS011;2286;51.570;7.090;2023-11-21T05:16:49;31.47;;;23.40;;
4547;SDS011;2286;51.570;7.090;2023-11-21T05:19:17;32.50;;;24.63;;
4547;SDS011;2286;51.570;7.090;2023-11-21T05:21:44;26.20;;;22.20;;
4547;SDS011;2286;51.570;7.090;2023-11-21T05:24:12;31.47;;;22.27;;
4547;SDS011;2286;51.570;7.090;2023-11-21T05:26:39;32.43;;;22.80;;
4547;SDS011;2286;51.570;7.090;2023-11-21T05:29:06;29.73;;;21.20;;
4547;SDS011;2286;51.570;7.090;2023-11-21T05:31:34;32.67;;;21.67;;
4547;SDS011;2286;51.570;7.090;2023-11-21T05:34:03;32.37;;;24.50;;
4547;SDS011;2286;51.570;7.090;2023-11-21T05:36:31;29.67;;;23.60;;
4547;SDS011;2286;51.570;7.090;2023-11-21T05:38:58;24.67;;;20.80;;
4547;SDS011;2286;51.570;7.090;2023-11-21T05:41:25;28.43;;;21.80;;
4547;SDS011;2286;51.570;7.090;2023-11-21T05:43:52;28.83;;;22.40;;
4547;SDS011;2286;51.570;7.090;2023-11-21T05:46:19;30.80;;;23.20;;
4547;SDS011;2286;51.570;7.090;2023-11-21T05:48:47;29.07;;;22.10;;
4547;SDS011;2286;51.570;7.090;2023-11-21T05:51:15;26.30;;;22.70;;
4547;SDS011;2286;51.570;7.090;2023-11-21T05:53:42;33.87;;;23.50;;
4547;SDS011;2286;51.570;7.090;2023-11-21T05:56:10;34.50;;;24.30;;
4547;SDS011;2286;51.570;7.090;2023-11-21T05:58:38;30.20;;;22.27;;
4547;SDS011;2286;51.570;7.090;2023-11-21T06:01:06;29.43;;;22.13;;
4547;SDS011;2286;51.570;7.090;2023-11-21T06:03:34;25.73;;;21.50;;
4547;SDS011;2286;51.570;7.090;2023-11-21T06:06:01;27.07;;;20.53;;
4547;SDS011;2286;51.570;7.090;2023-11-21T06:08:30;27.60;;;21.93;;
4547;SDS011;2286;51.570;7.090;2023-11-21T06:10:57;28.90;;;21.70;;
4547;SDS011;2286;51.570;7.090;2023-11-21T06:13:24;26.83;;;21.60;;
4547;SDS011;2286;51.570;7.090;2023-11-21T06:15:51;32.87;;;23.60;;
4547;SDS011;2286;51.570;7.090;2023-11-21T06:18:19;29.37;;;23.40;;
4547;SDS011;2286;51.570;7.090;2023-11-21T06:20:46;30.97;;;23.63;;
4547;SDS011;2286;51.570;7.090;2023-11-21T06:23:14;30.20;;;22.40;;
4547;SDS011;2286;51.570;7.090;2023-11-21T06:25:43;36.33;;;23.50;;
4547;SDS011;2286;51.570;7.090;2023-11-21T06:28:10;28.03;;;22.53;;
4547;SDS011;2286;51.570;7.090;2023-11-21T06:30:37;29.93;;;22.20;;
4547;SDS011;2286;51.570;7.090;2023-11-21T06:33:04;34.90;;;23.53;;
4547;SDS011;2286;51.570;7.090;2023-11-21T06:35:31;30.97;;;22.93;;
4547;SDS011;2286;51.570;7.090;2023-11-21T06:38:00;29.27;;;22.83;;
4547;SDS011;2286;51.570;7.090;2023-11-21T06:40:28;45.53;;;27.50;;
4547;SDS011;2286;51.570;7.090;2023-11-21T06:42:56;37.63;;;27.10;;
4547;SDS011;2286;51.570;7.090;2023-11-21T06:45:23;39.53;;;27.37;;
4547;SDS011;2286;51.570;7.090;2023-11-21T06:47:50;42.60;;;26.93;;
4547;SDS011;2286;51.570;7.090;2023-11-21T06:50:17;32.80;;;24.47;;
4547;SDS011;2286;51.570;7.090;2023-11-21T06:52:46;36.17;;;25.37;;
4547;SDS011;2286;51.570;7.090;2023-11-21T06:55:13;38.97;;;26.57;;
4547;SDS011;2286;51.570;7.090;2023-11-21T06:57:41;36.83;;;25.33;;
4547;SDS011;2286;51.570;7.090;2023-11-21T07:00:11;33.73;;;26.33;;
4547;SDS011;2286;51.570;7.090;2023-11-21T07:02:40;37.13;;;27.70;;
4547;SDS011;2286;51.570;7.090;2023-11-21T07:05:07;50.93;;;29.47;;
4547;SDS011;2286;51.570;7.090;2023-11-21T07:07:34;44.40;;;31.23;;
4547;SDS011;2286;51.570;7.090;2023-11-21T07:10:02;45.63;;;28.90;;
4547;SDS011;2286;51.570;7.090;2023-11-21T07:12:30;45.33;;;29.97;;
4547;SDS011;2286;51.570;7.090;2023-11-21T07:14:58;44.53;;;29.00;;
4547;SDS011;2286;51.570;7.090;2023-11-21T07:17:26;45.30;;;30.73;;
4547;SDS011;2286;51.570;7.090;2023-11-21T07:19:53;49.43;;;31.07;;
4547;SDS011;2286;51.570;7.090;2023-11-21T07:22:20;46.57;;;31.80;;
4547;SDS011;2286;51.570;7.090;2023-11-21T07:24:48;40.90;;;29.40;;
4547;SDS011;2286;51.570;7.090;2023-11-21T07:27:16;44.33;;;31.17;;
4547;SDS011;2286;51.570;7.090;2023-11-21T07:29:43;46.73;;;32.23;;
4547;SDS011;2286;51.570;7.090;2023-11-21T07:32:10;44.53;;;29.57;;
4547;SDS011;2286;51.570;7.090;2023-11-21T07:34:39;49.70;;;32.23;;
4547;SDS011;2286;51.570;7.090;2023-11-21T07:37:06;61.10;;;36.57;;
4547;SDS011;2286;51.570;7.090;2023-11-21T07:39:34;51.93;;;33.80;;
4547;SDS011;2286;51.570;7.090;2023-11-21T07:42:01;57.50;;;33.80;;
4547;SDS011;2286;51.570;7.090;2023-11-21T07:44:29;57.67;;;35.00;;
4547;SDS011;2286;51.570;7.090;2023-11-21T07:46:56;50.73;;;34.47;;
4547;SDS011;2286;51.570;7.090;2023-11-21T07:49:23;56.60;;;36.50;;
4547;SDS011;2286;51.570;7.090;2023-11-21T07:51:53;55.53;;;33.10;;
4547;SDS011;2286;51.570;7.090;2023-11-21T07:54:20;51.10;;;34.90;;
4547;SDS011;2286;51.570;7.090;2023-11-21T07:56:47;54.50;;;34.47;;
4547;SDS011;2286;51.570;7.090;2023-11-21T07:59:14;64.33;;;34.50;;
4547;SDS011;2286;51.570;7.090;2023-11-21T08:01:42;46.70;;;32.50;;
4547;SDS011;2286;51.570;7.090;2023-11-21T08:04:10;49.17;;;32.50;;
4547;SDS011;2286;51.570;7.090;2023-11-21T08:06:38;48.73;;;33.50;;
4547;SDS011;2286;51.570;7.090;2023-11-21T08:09:08;49.73;;;32.30;;
4547;SDS011;2286;51.570;7.090;2023-11-21T08:11:35;47.43;;;34.10;;
4547;SDS011;2286;51.570;7.090;2023-11-21T08:14:04;56.20;;;35.37;;
4547;SDS011;2286;51.570;7.090;2023-11-21T08:16:31;56.97;;;36.07;;
4547;SDS011;2286;51.570;7.090;2023-11-21T08:18:58;59.57;;;37.73;;
4547;SDS011;2286;51.570;7.090;2023-11-21T08:21:25;61.90;;;37.43;;
4547;SDS011;2286;51.570;7.090;2023-11-21T08:23:54;61.20;;;36.33;;
4547;SDS011;2286;51.570;7.090;2023-11-21T08:26:23;68.53;;;39.40;;
4547;SDS011;2286;51.570;7.090;2023-11-21T08:28:50;65.87;;;40.10;;
4547;SDS011;2286;51.570;7.090;2023-11-21T08:31:23;65.50;;;39.00;;
4547;SDS011;2286;51.570;7.090;2023-11-21T08:33:50;63.57;;;38.77;;
4547;SDS011;2286;51.570;7.090;2023-11-21T08:36:20;62.00;;;38.60;;
4547;SDS011;2286;51.570;7.090;2023-11-21T08:38:48;61.80;;;39.70;;
4547;SDS011;2286;51.570;7.090;2023-11-21T08:41:15;67.03;;;38.20;;
4547;SDS011;2286;51.570;7.090;2023-11-21T08:43:43;60.97;;;38.67;;
4547;SDS011;2286;51.570;7.090;2023-11-21T08:46:10;58.40;;;35.80;;
4547;SDS011;2286;51.570;7.090;2023-11-21T08:48:37;55.50;;;37.80;;
4547;SDS011;2286;51.570;7.090;2023-11-21T08:51:04;61.77;;;37.70;;
4547;SDS011;2286;51.570;7.090;2023-11-21T08:53:32;57.50;;;35.77;;
4547;SDS011;2286;51.570;7.090;2023-11-21T08:55:59;56.50;;;36.13;;
4547;SDS011;2286;51.570;7.090;2023-11-21T08:58:27;47.50;;;33.57;;
4547;SDS011;2286;51.570;7.090;2023-11-21T09:00:55;50.07;;;34.83;;
4547;SDS011;2286;51.570;7.090;2023-11-21T09:03:22;52.83;;;32.70;;
4547;SDS011;2286;51.570;7.090;2023-11-21T09:05:49;46.90;;;32.60;;
4547;SDS011;2286;51.570;7.090;2023-11-21T09:08:16;46.77;;;32.00;;
4547;SDS011;2286;51.570;7.090;2023-11-21T09:10:43;50.57;;;33.50;;
4547;SDS011;2286;51.570;7.090;2023-11-21T09:13:12;46.30;;;31.60;;
4547;SDS011;2286;51.570;7.090;2023-11-21T09:15:41;39.70;;;29.20;;
4547;SDS011;2286;51.570;7.090;2023-11-21T09:18:12;44.43;;;29.83;;
4547;SDS011;2286;51.570;7.090;2023-11-21T09:20:40;38.00;;;27.97;;
4547;SDS011;2286;51.570;7.090;2023-11-21T09:23:07;43.40;;;29.50;;
4547;SDS011;2286;51.570;7.090;2023-11-21T09:25:34;38.57;;;29.17;;
4547;SDS011;2286;51.570;7.090;2023-11-21T09:28:02;36.17;;;28.33;;
4547;SDS011;2286;51.570;7.090;2023-11-21T09:30:33;40.50;;;28.70;;
4547;SDS011;2286;51.570;7.090;2023-11-21T09:33:00;44.37;;;31.30;;
4547;SDS011;2286;51.570;7.090;2023-11-21T09:35:28;47.23;;;32.60;;
4547;SDS011;2286;51.570;7.090;2023-11-21T09:37:55;42.83;;;30.50;;
4547;SDS011;2286;51.570;7.090;2023-11-21T09:40:22;53.40;;;33.63;;
4547;SDS011;2286;51.570;7.090;2023-11-21T09:42:51;43.23;;;31.20;;
4547;SDS011;2286;51.570;7.090;2023-11-21T09:45:24;41.10;;;31.17;;
4547;SDS011;2286;51.570;7.090;2023-11-21T09:47:53;43.93;;;31.43;;
4547;SDS011;2286;51.570;7.090;2023-11-21T09:50:21;41.80;;;31.17;;
4547;SDS011;2286;51.570;7.090;2023-11-21T09:52:53;40.47;;;30.17;;
4547;SDS011;2286;51.570;7.090;2023-11-21T09:55:26;47.17;;;30.63;;
4547;SDS011;2286;51.570;7.090;2023-11-21T09:57:55;40.47;;;29.83;;
4547;SDS011;2286;51.570;7.090;2023-11-21T10:00:23;40.00;;;30.67;;
4547;SDS011;2286;51.570;7.090;2023-11-21T10:02:50;40.73;;;29.47;;
4547;SDS011;2286;51.570;7.090;2023-11-21T10:05:19;37.40;;;28.40;;
4547;SDS011;2286;51.570;7.090;2023-11-21T10:07:48;39.63;;;28.57;;
4547;SDS011;2286;51.570;7.090;2023-11-21T10:10:18;41.50;;;30.00;;
4547;SDS011;2286;51.570;7.090;2023-11-21T10:12:50;37.20;;;28.10;;
4547;SDS011;2286;51.570;7.090;2023-11-21T10:15:21;37.57;;;27.93;;
4547;SDS011;2286;51.570;7.090;2023-11-21T10:17:50;34.23;;;26.20;;
4547;SDS011;2286;51.570;7.090;2023-11-21T10:20:19;34.40;;;25.97;;
4547;SDS011;2286;51.570;7.090;2023-11-21T10:22:46;40.30;;;28.23;;
4547;SDS011;2286;51.570;7.090;2023-11-21T10:25:13;37.70;;;27.40;;
4547;SDS011;2286;51.570;7.090;2023-11-21T10:27:42;36.70;;;27.50;;
4547;SDS011;2286;51.570;7.090;2023-11-21T10:30:18;36.53;;;26.60;;
4547;SDS011;2286;51.570;7.090;2023-11-21T10:32:45;33.33;;;27.70;;
4547;SDS011;2286;51.570;7.090;2023-11-21T10:35:12;34.33;;;27.10;;
4547;SDS011;2286;51.570;7.090;2023-11-21T10:37:39;36.27;;;27.30;;
4547;SDS011;2286;51.570;7.090;2023-11-21T10:40:07;37.50;;;25.73;;
4547;SDS011;2286;51.570;7.090;2023-11-21T10:42:37;35.90;;;26.30;;
4547;SDS011;2286;51.570;7.090;2023-11-21T10:45:05;29.17;;;21.87;;
4547;SDS011;2286;51.570;7.090;2023-11-21T10:47:38;32.57;;;24.77;;
4547;SDS011;2286;51.570;7.090;2023-11-21T10:50:05;33.53;;;24.30;;
4547;SDS011;2286;51.570;7.090;2023-11-21T10:52:36;30.97;;;24.83;;
4547;SDS011;2286;51.570;7.090;2023-11-21T10:55:09;36.10;;;24.07;;
4547;SDS011;2286;51.570;7.090;2023-11-21T10:57:42;36.33;;;23.93;;
4547;SDS011;2286;51.570;7.090;2023-11-21T11:00:13;32.90;;;22.20;;
4547;SDS011;2286;51.570;7.090;2023-11-21T11:02:44;30.57;;;22.40;;
4547;SDS011;2286;51.570;7.090;2023-11-21T11:05:14;31.80;;;21.73;;
4547;SDS011;2286;51.570;7.090;2023-11-21T11:07:45;31.80;;;20.40;;
4547;SDS011;2286;51.570;7.090;2023-11-21T11:10:17;29.83;;;19.47;;
4547;SDS011;2286;51.570;7.090;2023-11-21T11:12:47;24.13;;;17.07;;
4547;SDS011;2286;51.570;7.090;2023-11-21T11:15:18;21.67;;;18.27;;
4547;SDS011;2286;51.570;7.090;2023-11-21T11:17:46;22.60;;;18.03;;
4547;SDS011;2286;51.570;7.090;2023-11-21T11:20:14;23.63;;;18.40;;
4547;SDS011;2286;51.570;7.090;2023-11-21T11:22:44;27.37;;;19.73;;
4547;SDS011;2286;51.570;7.090;2023-11-21T11:25:21;26.50;;;20.87;;
4547;SDS011;2286;51.570;7.090;2023-11-21T11:28:04;23.63;;;19.53;;
4547;SDS011;2286;51.570;7.090;2023-11-21T11:30:41;30.23;;;22.70;;
4547;SDS011;2286;51.570;7.090;2023-11-21T11:33:19;26.13;;;20.33;;
4547;SDS011;2286;51.570;7.090;2023-11-21T11:35:52;25.93;;;21.77;;
4547;SDS011;2286;51.570;7.090;2023-11-21T11:38:23;28.97;;;21.33;;
4547;SDS011;2286;51.570;7.090;2023-11-21T11:40:53;26.23;;;21.00;;
4547;SDS011;2286;51.570;7.090;2023-11-21T11:43:26;32.07;;;22.33;;
4547;SDS011;2286;51.570;7.090;2023-11-21T11:45:56;31.30;;;22.13;;
4547;SDS011;2286;51.570;7.090;2023-11-21T11:48:24;36.40;;;24.17;;
4547;SDS011;2286;51.570;7.090;2023-11-21T11:51:01;24.57;;;21.73;;
4547;SDS011;2286;51.570;7.090;2023-11-21T11:53:37;28.80;;;23.90;;
4547;SDS011;2286;51.570;7.090;2023-11-21T11:56:22;29.37;;;20.80;;
4547;SDS011;2286;51.570;7.090;2023-11-21T11:58:52;28.33;;;21.17;;
4547;SDS011;2286;51.570;7.090;2023-11-21T12:01:22;26.33;;;20.93;;
4547;SDS011;2286;51.570;7.090;2023-11-21T12:06:55;27.93;;;18.10;;
4547;SDS011;2286;51.570;7.090;2023-11-21T12:09:25;28.60;;;19.63;;
4547;SDS011;2286;51.570;7.090;2023-11-21T12:11:53;23.73;;;18.77;;
4547;SDS011;2286;51.570;7.090;2023-11-21T12:14:21;27.57;;;21.70;;
4547;SDS011;2286;51.570;7.090;2023-11-21T12:16:50;29.03;;;21.53;;
4547;SDS011;2286;51.570;7.090;2023-11-21T12:19:18;28.67;;;21.77;;
4547;SDS011;2286;51.570;7.090;2023-11-21T12:21:46;25.53;;;21.43;;
4547;SDS011;2286;51.570;7.090;2023-11-21T12:24:14;25.57;;;21.10;;
4547;SDS011;2286;51.570;7.090;2023-11-21T12:26:41;27.67;;;21.33;;
4547;SDS011;2286;51.570;7.090;2023-11-21T12:29:09;26.60;;;21.73;;
4547;SDS011;2286;51.570;7.090;2023-11-21T12:31:36;28.47;;;21.80;;
4547;SDS011;2286;51.570;7.090;2023-11-21T12:34:05;29.67;;;22.93;;
4547;SDS011;2286;51.570;7.090;2023-11-21T12:36:32;25.13;;;20.80;;
4547;SDS011;2286;51.570;7.090;2023-11-21T12:39:00;32.97;;;22.10;;
4547;SDS011;2286;51.570;7.090;2023-11-21T12:41:28;33.57;;;22.20;;
4547;SDS011;2286;51.570;7.090;2023-11-21T12:43:56;30.33;;;20.73;;
4547;SDS011;2286;51.570;7.090;2023-11-21T12:46:23;28.20;;;20.73;;
4547;SDS011;2286;51.570;7.090;2023-11-21T12:48:54;21.67;;;18.63;;
4547;SDS011;2286;51.570;7.090;2023-11-21T12:51:23;18.43;;;16.47;;
4547;SDS011;2286;51.570;7.090;2023-11-21T12:53:50;20.97;;;16.97;;
4547;SDS011;2286;51.570;7.090;2023-11-21T12:56:18;20.53;;;17.43;;
4547;SDS011;2286;51.570;7.090;2023-11-21T12:58:48;17.97;;;16.07;;
4547;SDS011;2286;51.570;7.090;2023-11-21T13:01:16;19.40;;;15.97;;
4547;SDS011;2286;51.570;7.090;2023-11-21T13:03:46;16.40;;;14.53;;
4547;SDS011;2286;51.570;7.090;2023-11-21T13:06:16;17.67;;;14.43;;
4547;SDS011;2286;51.570;7.090;2023-11-21T13:08:45;21.20;;;16.03;;
4547;SDS011;2286;51.570;7.090;2023-11-21T13:11:13;23.43;;;16.40;;
4547;SDS011;2286;51.570;7.090;2023-11-21T13:13:41;21.00;;;15.20;;
4547;SDS011;2286;51.570;7.090;2023-11-21T13:16:10;21.70;;;16.30;;
4547;SDS011;2286;51.570;7.090;2023-11-21T13:18:38;19.90;;;15.20;;
4547;SDS011;2286;51.570;7.090;2023-11-21T13:21:07;23.40;;;15.70;;
4547;SDS011;2286;51.570;7.090;2023-11-21T13:23:38;17.50;;;15.57;;
4547;SDS011;2286;51.570;7.090;2023-11-21T13:26:07;17.80;;;15.90;;
4547;SDS011;2286;51.570;7.090;2023-11-21T13:28:35;20.43;;;15.43;;
4547;SDS011;2286;51.570;7.090;2023-11-21T13:31:03;17.40;;;15.60;;
4547;SDS011;2286;51.570;7.090;2023-11-21T13:33:45;17.70;;;15.43;;
4547;SDS011;2286;51.570;7.090;2023-11-21T13:36:16;18.40;;;15.33;;
4547;SDS011;2286;51.570;7.090;2023-11-21T13:38:47;17.33;;;13.00;;
4547;SDS011;2286;51.570;7.090;2023-11-21T13:41:16;15.60;;;13.97;;
4547;SDS011;2286;51.570;7.090;2023-11-21T13:43:44;15.40;;;13.70;;
4547;SDS011;2286;51.570;7.090;2023-11-21T13:46:24;15.93;;;13.33;;
4547;SDS011;2286;51.570;7.090;2023-11-21T13:48:51;15.70;;;13.70;;
4547;SDS011;2286;51.570;7.090;2023-11-21T13:51:21;15.93;;;12.57;;
4547;SDS011;2286;51.570;7.090;2023-11-21T13:53:56;16.87;;;13.90;;
4547;SDS011;2286;51.570;7.090;2023-11-21T13:56:25;15.67;;;13.90;;
4547;SDS011;2286;51.570;7.090;2023-11-21T13:58:54;15.83;;;14.00;;
4547;SDS011;2286;51.570;7.090;2023-11-21T14:01:23;16.17;;;13.60;;
4547;SDS011;2286;51.570;7.090;2023-11-21T14:04:12;14.10;;;12.23;;
4547;SDS011;2286;51.570;7.090;2023-11-21T14:06:45;14.57;;;13.00;;
4547;SDS011;2286;51.570;7.090;2023-11-21T14:09:14;16.63;;;12.73;;
4547;SDS011;2286;51.570;7.090;2023-11-21T14:11:49;13.60;;;10.57;;
4547;SDS011;2286;51.570;7.090;2023-11-21T14:14:18;14.20;;;12.70;;
4547;SDS011;2286;51.570;7.090;2023-11-21T14:16:46;13.97;;;12.47;;
4547;SDS011;2286;51.570;7.090;2023-11-21T14:19:14;13.63;;;12.10;;
4547;SDS011;2286;51.570;7.090;2023-11-21T14:21:42;13.20;;;11.30;;
4547;SDS011;2286;51.570;7.090;2023-11-21T14:24:09;11.63;;;10.43;;
4547;SDS011;2286;51.570;7.090;2023-11-21T14:26:38;12.80;;;10.47;;
4547;SDS011;2286;51.570;7.090;2023-11-21T14:29:12;12.80;;;11.00;;
4547;SDS011;2286;51.570;7.090;2023-11-21T14:31:41;13.50;;;11.83;;
4547;SDS011;2286;51.570;7.090;2023-11-21T14:34:08;12.73;;;10.77;;
4547;SDS011;2286;51.570;7.090;2023-11-21T14:36:37;9.50;;;8.10;;
4547;SDS011;2286;51.570;7.090;2023-11-21T14:39:05;9.10;;;8.20;;
4547;SDS011;2286;51.570;7.090;2023-11-21T14:41:36;8.53;;;7.73;;
4547;SDS011;2286;51.570;7.090;2023-11-21T14:44:04;9.13;;;8.30;;
4547;SDS011;2286;51.570;7.090;2023-11-21T14:46:38;8.77;;;7.87;;
4547;SDS011;2286;51.570;7.090;2023-11-21T14:49:09;7.57;;;6.93;;
4547;SDS011;2286;51.570;7.090;2023-11-21T14:51:44;8.80;;;8.00;;
4547;SDS011;2286;51.570;7.090;2023-11-21T14:54:25;8.60;;;7.77;;
4547;SDS011;2286;51.570;7.090;2023-11-21T14:57:05;7.60;;;6.90;;
4547;SDS011;2286;51.570;7.090;2023-11-21T14:59:36;7.70;;;7.10;;